sensor_id;sensor_type;location;lat;lon;timestamp;P1;durP1;ratioP1;P2;durP2;ratioP2
44722;SDS011;30451;48.638;10.624;2023-01-31T00:02:09;1.65;;;0.90;;
44722;SDS011;30451;48.638;10.624;2023-01-31T00:04:35;1.17;;;0.82;;
44722;SDS011;30451;48.638;10.624;2023-01-31T00:07:00;2.42;;;1.08;;
44722;SDS011;30451;48.638;10.624;2023-01-31T00:09:26;1.70;;;0.90;;
44722;SDS011;30451;48.638;10.624;2023-01-31T00:11:51;1.50;;;0.88;;
44722;SDS011;30451;48.638;10.624;2023-01-31T00:14:18;1.55;;;0.90;;
44722;SDS011;30451;48.638;10.624;2023-01-31T00:16:44;1.35;;;0.85;;
44722;SDS011;30451;48.638;10.624;2023-01-31T00:19:10;1.58;;;0.80;;
44722;SDS011;30451;48.638;10.624;2023-01-31T00:21:35;1.63;;;0.90;;
44722;SDS011;30451;48.638;10.624;2023-01-31T00:24:01;1.52;;;0.93;;
44722;SDS011;30451;48.638;10.624;2023-01-31T00:26:30;1.40;;;0.80;;
44722;SDS011;30451;48.638;10.624;2023-01-31T00:28:58;1.42;;;0.90;;
44722;SDS011;30451;48.638;10.624;2023-01-31T00:31:27;1.20;;;0.80;;
44722;SDS011;30451;48.638;10.624;2023-01-31T00:33:53;1.88;;;1.00;;
44722;SDS011;30451;48.638;10.624;2023-01-31T00:36:21;1.80;;;1.02;;
44722;SDS011;30451;48.638;10.624;2023-01-31T00:38:54;1.90;;;1.00;;
44722;SDS011;30451;48.638;10.624;2023-01-31T00:41:21;1.63;;;0.90;;
44722;SDS011;30451;48.638;10.624;2023-01-31T00:43:48;1.73;;;0.93;;
44722;SDS011;30451;48.638;10.624;2023-01-31T00:46:14;1.40;;;0.80;;
44722;SDS011;30451;48.638;10.624;2023-01-31T00:48:41;1.48;;;0.85;;
44722;SDS011;30451;48.638;10.624;2023-01-31T00:51:06;1.52;;;0.90;;
44722;SDS011;30451;48.638;10.624;2023-01-31T00:53:32;1.42;;;0.90;;
44722;SDS011;30451;48.638;10.624;2023-01-31T00:56:05;2.58;;;1.13;;
44722;SDS011;30451;48.638;10.624;2023-01-31T00:58:35;1.40;;;0.95;;
44722;SDS011;30451;48.638;10.624;2023-01-31T01:01:07;1.35;;;0.90;;
44722;SDS011;30451;48.638;10.624;2023-01-31T01:03:34;1.50;;;0.90;;
44722;SDS011;30451;48.638;10.624;2023-01-31T01:06:01;1.73;;;0.90;;
44722;SDS011;30451;48.638;10.624;2023-01-31T01:08:27;1.05;;;0.77;;
44722;SDS011;30451;48.638;10.624;2023-01-31T01:10:53;1.42;;;0.90;;
44722;SDS011;30451;48.638;10.624;2023-01-31T01:13:19;1.60;;;0.70;;
44722;SDS011;30451;48.638;10.624;2023-01-31T01:15:44;1.25;;;0.80;;
44722;SDS011;30451;48.638;10.624;2023-01-31T01:18:10;1.52;;;0.80;;
44722;SDS011;30451;48.638;10.624;2023-01-31T01:20:35;1.08;;;0.73;;
44722;SDS011;30451;48.638;10.624;2023-01-31T01:23:03;0.88;;;0.70;;
44722;SDS011;30451;48.638;10.624;2023-01-31T01:25:28;1.20;;;0.70;;
44722;SDS011;30451;48.638;10.624;2023-01-31T01:27:54;1.25;;;0.73;;
44722;SDS011;30451;48.638;10.624;2023-01-31T01:30:19;1.25;;;0.70;;
44722;SDS011;30451;48.638;10.624;2023-01-31T01:32:45;1.35;;;0.80;;
44722;SDS011;30451;48.638;10.624;2023-01-31T01:35:11;1.35;;;0.80;;
44722;SDS011;30451;48.638;10.624;2023-01-31T01:37:37;1.10;;;0.70;;
44722;SDS011;30451;48.638;10.624;2023-01-31T01:40:02;1.10;;;0.80;;
44722;SDS011;30451;48.638;10.624;2023-01-31T01:42:32;1.25;;;0.80;;
44722;SDS011;30451;48.638;10.624;2023-01-31T01:45:00;0.90;;;0.60;;
44722;SDS011;30451;48.638;10.624;2023-01-31T01:52:58;0.77;;;0.60;;
44722;SDS011;30451;48.638;10.624;2023-01-31T01:55:36;1.63;;;1.05;;
44722;SDS011;30451;48.638;10.624;2023-01-31T01:58:10;1.08;;;0.70;;
44722;SDS011;30451;48.638;10.624;2023-01-31T02:00:41;0.90;;;0.77;;
44722;SDS011;30451;48.638;10.624;2023-01-31T02:03:09;1.80;;;0.70;;
44722;SDS011;30451;48.638;10.624;2023-01-31T02:05:43;0.95;;;0.70;;
44722;SDS011;30451;48.638;10.624;2023-01-31T02:08:31;1.40;;;0.65;;
44722;SDS011;30451;48.638;10.624;2023-01-31T02:13:43;1.25;;;0.80;;
44722;SDS011;30451;48.638;10.624;2023-01-31T02:16:11;0.80;;;0.50;;
44722;SDS011;30451;48.638;10.624;2023-01-31T02:18:37;1.02;;;0.63;;
44722;SDS011;30451;48.638;10.624;2023-01-31T02:21:09;0.88;;;0.70;;
44722;SDS011;30451;48.638;10.624;2023-01-31T02:37:32;0.60;;;0.57;;
44722;SDS011;30451;48.638;10.624;2023-01-31T02:50:34;1.40;;;0.80;;
44722;SDS011;30451;48.638;10.624;2023-01-31T02:53:30;0.82;;;0.70;;
44722;SDS011;30451;48.638;10.624;2023-01-31T03:01:36;0.60;;;0.60;;
44722;SDS011;30451;48.638;10.624;2023-01-31T03:04:08;0.80;;;0.70;;
44722;SDS011;30451;48.638;10.624;2023-01-31T03:16:42;1.00;;;0.70;;
44722;SDS011;30451;48.638;10.624;2023-01-31T03:19:38;1.27;;;0.80;;
44722;SDS011;30451;48.638;10.624;2023-01-31T03:22:13;0.95;;;0.60;;
44722;SDS011;30451;48.638;10.624;2023-01-31T03:24:42;1.05;;;0.70;;
44722;SDS011;30451;48.638;10.624;2023-01-31T03:27:11;0.93;;;0.65;;
44722;SDS011;30451;48.638;10.624;2023-01-31T03:29:37;1.92;;;0.80;;
44722;SDS011;30451;48.638;10.624;2023-01-31T03:32:04;1.23;;;0.70;;
44722;SDS011;30451;48.638;10.624;2023-01-31T03:34:39;1.40;;;0.73;;
44722;SDS011;30451;48.638;10.624;2023-01-31T03:37:26;1.30;;;0.80;;
44722;SDS011;30451;48.638;10.624;2023-01-31T03:40:16;1.17;;;0.70;;
44722;SDS011;30451;48.638;10.624;2023-01-31T03:43:19;1.17;;;0.68;;
44722;SDS011;30451;48.638;10.624;2023-01-31T03:46:38;0.93;;;0.60;;
44722;SDS011;30451;48.638;10.624;2023-01-31T03:48:49;1.52;;;0.80;;
44722;SDS011;30451;48.638;10.624;2023-01-31T03:51:18;0.85;;;0.70;;
44722;SDS011;30451;48.638;10.624;2023-01-31T03:53:50;0.98;;;0.70;;
44722;SDS011;30451;48.638;10.624;2023-01-31T03:57:01;1.40;;;0.80;;
44722;SDS011;30451;48.638;10.624;2023-01-31T03:59:14;0.90;;;0.60;;
44722;SDS011;30451;48.638;10.624;2023-01-31T04:01:45;0.65;;;0.60;;
44722;SDS011;30451;48.638;10.624;2023-01-31T04:04:14;1.38;;;0.70;;
44722;SDS011;30451;48.638;10.624;2023-01-31T04:06:44;0.82;;;0.65;;
44722;SDS011;30451;48.638;10.624;2023-01-31T04:09:10;1.00;;;0.70;;
44722;SDS011;30451;48.638;10.624;2023-01-31T04:11:37;1.00;;;0.70;;
44722;SDS011;30451;48.638;10.624;2023-01-31T04:14:05;1.40;;;0.70;;
44722;SDS011;30451;48.638;10.624;2023-01-31T04:16:31;1.13;;;0.70;;
44722;SDS011;30451;48.638;10.624;2023-01-31T04:18:57;0.90;;;0.60;;
44722;SDS011;30451;48.638;10.624;2023-01-31T04:21:23;1.17;;;0.70;;
44722;SDS011;30451;48.638;10.624;2023-01-31T04:23:48;1.30;;;0.80;;
44722;SDS011;30451;48.638;10.624;2023-01-31T04:26:14;1.25;;;0.60;;
44722;SDS011;30451;48.638;10.624;2023-01-31T04:28:41;0.63;;;0.60;;
44722;SDS011;30451;48.638;10.624;2023-01-31T04:31:06;1.67;;;0.80;;
44722;SDS011;30451;48.638;10.624;2023-01-31T04:33:32;0.70;;;0.50;;
44722;SDS011;30451;48.638;10.624;2023-01-31T04:35:58;0.90;;;0.50;;
44722;SDS011;30451;48.638;10.624;2023-01-31T04:38:23;1.02;;;0.60;;
44722;SDS011;30451;48.638;10.624;2023-01-31T04:40:49;0.90;;;0.60;;
44722;SDS011;30451;48.638;10.624;2023-01-31T04:43:15;0.88;;;0.60;;
44722;SDS011;30451;48.638;10.624;2023-01-31T04:45:41;2.33;;;0.80;;
44722;SDS011;30451;48.638;10.624;2023-01-31T04:48:06;1.27;;;0.70;;
44722;SDS011;30451;48.638;10.624;2023-01-31T04:50:32;0.82;;;0.50;;
44722;SDS011;30451;48.638;10.624;2023-01-31T04:52:58;0.68;;;0.57;;
44722;SDS011;30451;48.638;10.624;2023-01-31T04:55:23;0.80;;;0.70;;
44722;SDS011;30451;48.638;10.624;2023-01-31T04:57:50;0.85;;;0.60;;
44722;SDS011;30451;48.638;10.624;2023-01-31T05:00:16;1.10;;;0.60;;
44722;SDS011;30451;48.638;10.624;2023-01-31T05:02:42;0.45;;;0.43;;
44722;SDS011;30451;48.638;10.624;2023-01-31T05:05:08;0.82;;;0.60;;
44722;SDS011;30451;48.638;10.624;2023-01-31T05:07:34;0.52;;;0.50;;
44722;SDS011;30451;48.638;10.624;2023-01-31T05:09:59;0.80;;;0.52;;
44722;SDS011;30451;48.638;10.624;2023-01-31T05:12:25;0.40;;;0.40;;
44722;SDS011;30451;48.638;10.624;2023-01-31T05:14:52;0.55;;;0.50;;
44722;SDS011;30451;48.638;10.624;2023-01-31T05:17:18;1.27;;;0.70;;
44722;SDS011;30451;48.638;10.624;2023-01-31T05:19:50;0.93;;;0.68;;
44722;SDS011;30451;48.638;10.624;2023-01-31T05:22:15;0.60;;;0.60;;
44722;SDS011;30451;48.638;10.624;2023-01-31T05:24:41;0.73;;;0.57;;
44722;SDS011;30451;48.638;10.624;2023-01-31T05:27:07;0.80;;;0.63;;
44722;SDS011;30451;48.638;10.624;2023-01-31T05:29:34;0.88;;;0.63;;
44722;SDS011;30451;48.638;10.624;2023-01-31T05:32:00;0.80;;;0.60;;
44722;SDS011;30451;48.638;10.624;2023-01-31T05:34:26;0.70;;;0.52;;
44722;SDS011;30451;48.638;10.624;2023-01-31T05:36:57;0.95;;;0.80;;
44722;SDS011;30451;48.638;10.624;2023-01-31T05:39:23;1.00;;;0.60;;
44722;SDS011;30451;48.638;10.624;2023-01-31T05:41:48;1.00;;;0.70;;
44722;SDS011;30451;48.638;10.624;2023-01-31T05:44:14;0.85;;;0.60;;
44722;SDS011;30451;48.638;10.624;2023-01-31T05:46:40;1.05;;;0.70;;
44722;SDS011;30451;48.638;10.624;2023-01-31T05:49:06;0.82;;;0.65;;
44722;SDS011;30451;48.638;10.624;2023-01-31T05:51:32;0.75;;;0.50;;
44722;SDS011;30451;48.638;10.624;2023-01-31T05:53:58;1.10;;;0.63;;
44722;SDS011;30451;48.638;10.624;2023-01-31T05:56:23;3.13;;;0.60;;
44722;SDS011;30451;48.638;10.624;2023-01-31T05:58:50;1.30;;;0.70;;
44722;SDS011;30451;48.638;10.624;2023-01-31T06:01:16;0.75;;;0.60;;
44722;SDS011;30451;48.638;10.624;2023-01-31T06:03:43;0.70;;;0.60;;
44722;SDS011;30451;48.638;10.624;2023-01-31T06:06:08;1.17;;;0.70;;
44722;SDS011;30451;48.638;10.624;2023-01-31T06:08:34;1.20;;;0.60;;
44722;SDS011;30451;48.638;10.624;2023-01-31T06:11:00;1.08;;;0.63;;
44722;SDS011;30451;48.638;10.624;2023-01-31T06:13:26;1.58;;;0.60;;
44722;SDS011;30451;48.638;10.624;2023-01-31T06:15:52;1.00;;;0.57;;
44722;SDS011;30451;48.638;10.624;2023-01-31T06:18:17;0.75;;;0.60;;
44722;SDS011;30451;48.638;10.624;2023-01-31T06:20:43;0.77;;;0.52;;
44722;SDS011;30451;48.638;10.624;2023-01-31T06:23:08;1.27;;;0.70;;
44722;SDS011;30451;48.638;10.624;2023-01-31T06:25:34;0.90;;;0.63;;
44722;SDS011;30451;48.638;10.624;2023-01-31T06:28:00;1.65;;;0.60;;
44722;SDS011;30451;48.638;10.624;2023-01-31T06:30:25;1.58;;;0.73;;
44722;SDS011;30451;48.638;10.624;2023-01-31T06:32:51;2.67;;;0.80;;
44722;SDS011;30451;48.638;10.624;2023-01-31T06:35:16;1.33;;;0.70;;
44722;SDS011;30451;48.638;10.624;2023-01-31T06:37:42;1.30;;;0.80;;
44722;SDS011;30451;48.638;10.624;2023-01-31T06:40:07;1.48;;;0.80;;
44722;SDS011;30451;48.638;10.624;2023-01-31T06:42:34;1.92;;;0.88;;
44722;SDS011;30451;48.638;10.624;2023-01-31T06:44:59;1.60;;;0.80;;
44722;SDS011;30451;48.638;10.624;2023-01-31T06:47:25;1.45;;;0.73;;
44722;SDS011;30451;48.638;10.624;2023-01-31T06:49:50;2.60;;;0.80;;
44722;SDS011;30451;48.638;10.624;2023-01-31T06:52:16;0.98;;;0.57;;
44722;SDS011;30451;48.638;10.624;2023-01-31T06:54:41;1.55;;;0.70;;
44722;SDS011;30451;48.638;10.624;2023-01-31T06:57:07;1.75;;;0.90;;
44722;SDS011;30451;48.638;10.624;2023-01-31T06:59:33;1.52;;;0.80;;
44722;SDS011;30451;48.638;10.624;2023-01-31T07:01:58;1.63;;;0.85;;
44722;SDS011;30451;48.638;10.624;2023-01-31T07:04:24;1.20;;;0.73;;
44722;SDS011;30451;48.638;10.624;2023-01-31T07:06:50;1.60;;;0.88;;
44722;SDS011;30451;48.638;10.624;2023-01-31T07:09:15;1.70;;;0.75;;
44722;SDS011;30451;48.638;10.624;2023-01-31T07:11:41;1.85;;;0.88;;
44722;SDS011;30451;48.638;10.624;2023-01-31T07:14:07;2.00;;;0.88;;
44722;SDS011;30451;48.638;10.624;2023-01-31T07:16:33;2.45;;;0.80;;
44722;SDS011;30451;48.638;10.624;2023-01-31T07:18:58;2.00;;;0.90;;
44722;SDS011;30451;48.638;10.624;2023-01-31T07:21:24;1.55;;;0.90;;
44722;SDS011;30451;48.638;10.624;2023-01-31T07:23:50;1.30;;;0.70;;
44722;SDS011;30451;48.638;10.624;2023-01-31T07:26:16;1.80;;;0.70;;
44722;SDS011;30451;48.638;10.624;2023-01-31T07:28:42;1.00;;;0.77;;
44722;SDS011;30451;48.638;10.624;2023-01-31T07:31:10;1.52;;;0.70;;
44722;SDS011;30451;48.638;10.624;2023-01-31T07:33:38;1.98;;;0.90;;
44722;SDS011;30451;48.638;10.624;2023-01-31T07:36:04;1.35;;;0.85;;
44722;SDS011;30451;48.638;10.624;2023-01-31T07:38:32;1.88;;;0.93;;
44722;SDS011;30451;48.638;10.624;2023-01-31T07:40:58;1.45;;;1.02;;
44722;SDS011;30451;48.638;10.624;2023-01-31T07:43:25;1.70;;;0.80;;
44722;SDS011;30451;48.638;10.624;2023-01-31T07:45:52;1.60;;;0.80;;
44722;SDS011;30451;48.638;10.624;2023-01-31T07:48:18;1.42;;;1.00;;
44722;SDS011;30451;48.638;10.624;2023-01-31T07:50:50;1.90;;;0.98;;
44722;SDS011;30451;48.638;10.624;2023-01-31T07:53:17;0.93;;;0.68;;
44722;SDS011;30451;48.638;10.624;2023-01-31T07:55:43;1.67;;;0.82;;
44722;SDS011;30451;48.638;10.624;2023-01-31T07:58:12;0.95;;;0.70;;
44722;SDS011;30451;48.638;10.624;2023-01-31T08:00:39;1.90;;;0.90;;
44722;SDS011;30451;48.638;10.624;2023-01-31T08:03:27;0.95;;;0.80;;
44722;SDS011;30451;48.638;10.624;2023-01-31T08:06:07;2.35;;;0.80;;
44722;SDS011;30451;48.638;10.624;2023-01-31T08:08:35;1.35;;;0.80;;
44722;SDS011;30451;48.638;10.624;2023-01-31T08:11:01;1.40;;;0.77;;
44722;SDS011;30451;48.638;10.624;2023-01-31T08:13:29;1.70;;;0.90;;
44722;SDS011;30451;48.638;10.624;2023-01-31T08:15:55;1.73;;;0.80;;
44722;SDS011;30451;48.638;10.624;2023-01-31T08:18:21;1.30;;;0.70;;
44722;SDS011;30451;48.638;10.624;2023-01-31T08:20:46;1.27;;;0.65;;
44722;SDS011;30451;48.638;10.624;2023-01-31T08:23:12;1.40;;;0.60;;
44722;SDS011;30451;48.638;10.624;2023-01-31T08:25:38;1.83;;;1.00;;
44722;SDS011;30451;48.638;10.624;2023-01-31T08:28:04;1.67;;;0.90;;
44722;SDS011;30451;48.638;10.624;2023-01-31T08:30:30;1.98;;;1.00;;
44722;SDS011;30451;48.638;10.624;2023-01-31T08:32:55;1.42;;;0.70;;
44722;SDS011;30451;48.638;10.624;2023-01-31T08:35:21;1.38;;;0.80;;
44722;SDS011;30451;48.638;10.624;2023-01-31T08:37:47;1.25;;;0.80;;
44722;SDS011;30451;48.638;10.624;2023-01-31T08:40:12;1.33;;;0.75;;
44722;SDS011;30451;48.638;10.624;2023-01-31T08:42:38;1.40;;;0.73;;
44722;SDS011;30451;48.638;10.624;2023-01-31T08:45:04;1.33;;;0.80;;
44722;SDS011;30451;48.638;10.624;2023-01-31T08:47:31;1.48;;;0.80;;
44722;SDS011;30451;48.638;10.624;2023-01-31T08:49:57;0.88;;;0.70;;
44722;SDS011;30451;48.638;10.624;2023-01-31T08:52:22;1.67;;;0.70;;
44722;SDS011;30451;48.638;10.624;2023-01-31T08:54:48;1.10;;;0.70;;
44722;SDS011;30451;48.638;10.624;2023-01-31T08:57:13;0.88;;;0.65;;
44722;SDS011;30451;48.638;10.624;2023-01-31T08:59:39;0.90;;;0.68;;
44722;SDS011;30451;48.638;10.624;2023-01-31T09:02:05;1.45;;;0.80;;
44722;SDS011;30451;48.638;10.624;2023-01-31T09:04:30;1.20;;;0.80;;
44722;SDS011;30451;48.638;10.624;2023-01-31T09:06:56;1.70;;;0.80;;
44722;SDS011;30451;48.638;10.624;2023-01-31T09:09:21;3.80;;;0.85;;
44722;SDS011;30451;48.638;10.624;2023-01-31T09:11:49;1.30;;;0.77;;
44722;SDS011;30451;48.638;10.624;2023-01-31T09:14:14;1.88;;;0.90;;
44722;SDS011;30451;48.638;10.624;2023-01-31T09:16:40;1.73;;;0.90;;
44722;SDS011;30451;48.638;10.624;2023-01-31T09:19:06;1.70;;;1.00;;
44722;SDS011;30451;48.638;10.624;2023-01-31T09:21:31;1.02;;;0.77;;
44722;SDS011;30451;48.638;10.624;2023-01-31T09:23:58;1.17;;;0.77;;
44722;SDS011;30451;48.638;10.624;2023-01-31T09:26:26;1.40;;;0.80;;
44722;SDS011;30451;48.638;10.624;2023-01-31T09:28:52;1.40;;;0.80;;
44722;SDS011;30451;48.638;10.624;2023-01-31T09:31:19;1.45;;;0.70;;
44722;SDS011;30451;48.638;10.624;2023-01-31T09:33:45;2.08;;;0.88;;
44722;SDS011;30451;48.638;10.624;2023-01-31T09:36:12;1.85;;;0.98;;
44722;SDS011;30451;48.638;10.624;2023-01-31T09:38:39;1.10;;;0.70;;
44722;SDS011;30451;48.638;10.624;2023-01-31T09:41:10;1.70;;;0.82;;
44722;SDS011;30451;48.638;10.624;2023-01-31T09:43:50;1.42;;;0.75;;
44722;SDS011;30451;48.638;10.624;2023-01-31T09:46:20;1.38;;;0.75;;
44722;SDS011;30451;48.638;10.624;2023-01-31T09:48:51;1.58;;;0.80;;
44722;SDS011;30451;48.638;10.624;2023-01-31T09:51:20;1.52;;;0.70;;
44722;SDS011;30451;48.638;10.624;2023-01-31T09:53:46;1.55;;;0.85;;
44722;SDS011;30451;48.638;10.624;2023-01-31T10:11:59;1.33;;;0.80;;
44722;SDS011;30451;48.638;10.624;2023-01-31T10:17:14;1.70;;;1.00;;
44722;SDS011;30451;48.638;10.624;2023-01-31T10:20:00;1.67;;;0.77;;
44722;SDS011;30451;48.638;10.624;2023-01-31T10:22:45;1.77;;;0.77;;
44722;SDS011;30451;48.638;10.624;2023-01-31T10:27:45;1.25;;;0.77;;
44722;SDS011;30451;48.638;10.624;2023-01-31T10:30:18;1.95;;;0.95;;
44722;SDS011;30451;48.638;10.624;2023-01-31T10:32:49;1.80;;;0.90;;
44722;SDS011;30451;48.638;10.624;2023-01-31T10:37:59;1.67;;;0.80;;
44722;SDS011;30451;48.638;10.624;2023-01-31T10:40:33;1.75;;;0.75;;
44722;SDS011;30451;48.638;10.624;2023-01-31T10:43:10;1.67;;;0.80;;
44722;SDS011;30451;48.638;10.624;2023-01-31T10:45:58;0.93;;;0.70;;
44722;SDS011;30451;48.638;10.624;2023-01-31T10:48:27;1.55;;;0.80;;
44722;SDS011;30451;48.638;10.624;2023-01-31T10:56:18;1.25;;;0.70;;
44722;SDS011;30451;48.638;10.624;2023-01-31T10:58:52;1.70;;;0.90;;
44722;SDS011;30451;48.638;10.624;2023-01-31T11:01:18;1.17;;;0.70;;
44722;SDS011;30451;48.638;10.624;2023-01-31T11:03:49;1.38;;;0.77;;
44722;SDS011;30451;48.638;10.624;2023-01-31T11:06:16;1.25;;;0.80;;
44722;SDS011;30451;48.638;10.624;2023-01-31T11:08:44;1.48;;;0.80;;
44722;SDS011;30451;48.638;10.624;2023-01-31T11:11:17;1.83;;;0.88;;
44722;SDS011;30451;48.638;10.624;2023-01-31T11:14:01;1.38;;;0.80;;
44722;SDS011;30451;48.638;10.624;2023-01-31T11:16:33;1.10;;;0.80;;
44722;SDS011;30451;48.638;10.624;2023-01-31T11:19:03;1.33;;;0.60;;
44722;SDS011;30451;48.638;10.624;2023-01-31T11:21:51;1.15;;;0.70;;
44722;SDS011;30451;48.638;10.624;2023-01-31T11:24:23;1.10;;;0.70;;
44722;SDS011;30451;48.638;10.624;2023-01-31T11:26:54;1.13;;;0.70;;
44722;SDS011;30451;48.638;10.624;2023-01-31T11:29:27;1.90;;;0.70;;
44722;SDS011;30451;48.638;10.624;2023-01-31T11:31:57;1.38;;;0.77;;
44722;SDS011;30451;48.638;10.624;2023-01-31T11:34:26;1.05;;;0.70;;
44722;SDS011;30451;48.638;10.624;2023-01-31T11:37:05;0.88;;;0.60;;
44722;SDS011;30451;48.638;10.624;2023-01-31T11:39:41;1.45;;;0.77;;
44722;SDS011;30451;48.638;10.624;2023-01-31T11:42:17;1.52;;;0.73;;
44722;SDS011;30451;48.638;10.624;2023-01-31T11:47:19;1.58;;;0.80;;
44722;SDS011;30451;48.638;10.624;2023-01-31T11:49:49;1.83;;;0.90;;
44722;SDS011;30451;48.638;10.624;2023-01-31T11:52:16;1.15;;;0.77;;
44722;SDS011;30451;48.638;10.624;2023-01-31T11:54:50;1.55;;;0.82;;
44722;SDS011;30451;48.638;10.624;2023-01-31T11:57:23;1.60;;;0.70;;
44722;SDS011;30451;48.638;10.624;2023-01-31T11:59:53;1.10;;;0.68;;
44722;SDS011;30451;48.638;10.624;2023-01-31T12:04:56;1.73;;;1.00;;
44722;SDS011;30451;48.638;10.624;2023-01-31T12:07:26;1.33;;;0.85;;
44722;SDS011;30451;48.638;10.624;2023-01-31T12:09:55;1.58;;;0.80;;
44722;SDS011;30451;48.638;10.624;2023-01-31T12:12:34;1.08;;;0.70;;
44722;SDS011;30451;48.638;10.624;2023-01-31T12:15:01;1.85;;;0.90;;
44722;SDS011;30451;48.638;10.624;2023-01-31T12:17:41;1.48;;;0.70;;
44722;SDS011;30451;48.638;10.624;2023-01-31T12:22:53;1.38;;;0.70;;
44722;SDS011;30451;48.638;10.624;2023-01-31T12:31:30;2.20;;;0.90;;
44722;SDS011;30451;48.638;10.624;2023-01-31T12:37:10;1.83;;;0.80;;
44722;SDS011;30451;48.638;10.624;2023-01-31T12:40:04;1.27;;;0.80;;
44722;SDS011;30451;48.638;10.624;2023-01-31T12:42:58;1.35;;;0.70;;
44722;SDS011;30451;48.638;10.624;2023-01-31T13:01:47;1.50;;;0.80;;
44722;SDS011;30451;48.638;10.624;2023-01-31T13:06:43;1.20;;;0.70;;
44722;SDS011;30451;48.638;10.624;2023-01-31T13:09:17;2.08;;;0.80;;
44722;SDS011;30451;48.638;10.624;2023-01-31T13:14:44;3.30;;;1.10;;
44722;SDS011;30451;48.638;10.624;2023-01-31T13:17:27;3.22;;;1.35;;
44722;SDS011;30451;48.638;10.624;2023-01-31T13:19:56;3.83;;;1.50;;
44722;SDS011;30451;48.638;10.624;2023-01-31T13:22:31;3.60;;;1.13;;
44722;SDS011;30451;48.638;10.624;2023-01-31T13:28:12;2.97;;;1.27;;
44722;SDS011;30451;48.638;10.624;2023-01-31T13:31:02;4.45;;;1.20;;
44722;SDS011;30451;48.638;10.624;2023-01-31T13:33:36;2.88;;;1.25;;
44722;SDS011;30451;48.638;10.624;2023-01-31T13:38:59;2.50;;;1.17;;
44722;SDS011;30451;48.638;10.624;2023-01-31T13:41:32;2.50;;;1.20;;
44722;SDS011;30451;48.638;10.624;2023-01-31T13:43:59;1.98;;;1.17;;
44722;SDS011;30451;48.638;10.624;2023-01-31T13:49:14;2.72;;;1.10;;
44722;SDS011;30451;48.638;10.624;2023-01-31T13:51:49;3.45;;;1.10;;
44722;SDS011;30451;48.638;10.624;2023-01-31T13:54:27;3.85;;;1.20;;
44722;SDS011;30451;48.638;10.624;2023-01-31T13:56:59;1.95;;;0.95;;
44722;SDS011;30451;48.638;10.624;2023-01-31T13:59:27;2.75;;;1.27;;
44722;SDS011;30451;48.638;10.624;2023-01-31T14:01:57;3.60;;;1.20;;
44722;SDS011;30451;48.638;10.624;2023-01-31T14:04:25;2.75;;;1.25;;
44722;SDS011;30451;48.638;10.624;2023-01-31T14:07:12;2.97;;;1.17;;
44722;SDS011;30451;48.638;10.624;2023-01-31T14:14:45;2.65;;;0.90;;
44722;SDS011;30451;48.638;10.624;2023-01-31T14:17:13;2.80;;;1.02;;
44722;SDS011;30451;48.638;10.624;2023-01-31T14:20:05;2.55;;;1.10;;
44722;SDS011;30451;48.638;10.624;2023-01-31T14:25:52;3.40;;;1.20;;
44722;SDS011;30451;48.638;10.624;2023-01-31T14:28:17;2.30;;;1.00;;
44722;SDS011;30451;48.638;10.624;2023-01-31T14:30:43;2.60;;;1.27;;
44722;SDS011;30451;48.638;10.624;2023-01-31T14:49:20;3.40;;;1.20;;
44722;SDS011;30451;48.638;10.624;2023-01-31T14:52:21;2.58;;;1.10;;
44722;SDS011;30451;48.638;10.624;2023-01-31T14:55:20;6.53;;;1.30;;
44722;SDS011;30451;48.638;10.624;2023-01-31T14:58:01;3.03;;;1.08;;
44722;SDS011;30451;48.638;10.624;2023-01-31T15:00:30;2.97;;;1.10;;
44722;SDS011;30451;48.638;10.624;2023-01-31T15:03:19;3.15;;;1.30;;
44722;SDS011;30451;48.638;10.624;2023-01-31T15:05:54;2.88;;;1.20;;
44722;SDS011;30451;48.638;10.624;2023-01-31T15:08:34;4.18;;;1.20;;
44722;SDS011;30451;48.638;10.624;2023-01-31T15:13:52;3.70;;;1.00;;
44722;SDS011;30451;48.638;10.624;2023-01-31T15:16:32;3.30;;;1.23;;
44722;SDS011;30451;48.638;10.624;2023-01-31T15:21:50;2.67;;;1.33;;
44722;SDS011;30451;48.638;10.624;2023-01-31T15:24:32;2.80;;;1.10;;
44722;SDS011;30451;48.638;10.624;2023-01-31T15:27:13;3.05;;;1.10;;
44722;SDS011;30451;48.638;10.624;2023-01-31T15:32:40;2.83;;;1.17;;
44722;SDS011;30451;48.638;10.624;2023-01-31T15:42:43;1.48;;;0.80;;
44722;SDS011;30451;48.638;10.624;2023-01-31T15:45:25;4.78;;;1.20;;
44722;SDS011;30451;48.638;10.624;2023-01-31T15:47:55;2.75;;;1.20;;
44722;SDS011;30451;48.638;10.624;2023-01-31T15:50:26;2.55;;;0.95;;
44722;SDS011;30451;48.638;10.624;2023-01-31T15:53:00;1.85;;;0.93;;
44722;SDS011;30451;48.638;10.624;2023-01-31T15:55:27;2.05;;;0.90;;
44722;SDS011;30451;48.638;10.624;2023-01-31T15:57:54;2.17;;;0.88;;
44722;SDS011;30451;48.638;10.624;2023-01-31T16:00:27;2.13;;;0.68;;
44722;SDS011;30451;48.638;10.624;2023-01-31T16:02:58;3.00;;;0.88;;
44722;SDS011;30451;48.638;10.624;2023-01-31T16:05:27;1.30;;;0.80;;
44722;SDS011;30451;48.638;10.624;2023-01-31T16:07:55;1.08;;;0.80;;
44722;SDS011;30451;48.638;10.624;2023-01-31T16:10:22;1.52;;;0.77;;
44722;SDS011;30451;48.638;10.624;2023-01-31T16:12:50;1.90;;;1.13;;
44722;SDS011;30451;48.638;10.624;2023-01-31T16:15:19;2.20;;;1.00;;
44722;SDS011;30451;48.638;10.624;2023-01-31T16:17:47;2.15;;;1.00;;
44722;SDS011;30451;48.638;10.624;2023-01-31T16:23:01;1.60;;;0.77;;
44722;SDS011;30451;48.638;10.624;2023-01-31T16:25:27;3.67;;;1.23;;
44722;SDS011;30451;48.638;10.624;2023-01-31T16:27:54;2.22;;;0.90;;
44722;SDS011;30451;48.638;10.624;2023-01-31T16:30:26;2.10;;;0.80;;
44722;SDS011;30451;48.638;10.624;2023-01-31T16:32:52;1.58;;;0.82;;
44722;SDS011;30451;48.638;10.624;2023-01-31T16:35:21;2.38;;;1.27;;
44722;SDS011;30451;48.638;10.624;2023-01-31T16:37:59;2.90;;;0.95;;
44722;SDS011;30451;48.638;10.624;2023-01-31T16:40:28;1.93;;;1.10;;
44722;SDS011;30451;48.638;10.624;2023-01-31T16:43:12;2.45;;;1.00;;
44722;SDS011;30451;48.638;10.624;2023-01-31T16:45:50;2.60;;;1.10;;
44722;SDS011;30451;48.638;10.624;2023-01-31T16:50:46;1.92;;;0.90;;
44722;SDS011;30451;48.638;10.624;2023-01-31T16:53:23;1.67;;;0.90;;
44722;SDS011;30451;48.638;10.624;2023-01-31T16:58:54;1.80;;;0.90;;
44722;SDS011;30451;48.638;10.624;2023-01-31T17:03:58;1.67;;;0.80;;
44722;SDS011;30451;48.638;10.624;2023-01-31T17:06:25;1.90;;;0.60;;
44722;SDS011;30451;48.638;10.624;2023-01-31T17:08:51;2.15;;;0.80;;
44722;SDS011;30451;48.638;10.624;2023-01-31T17:11:16;1.55;;;0.65;;
44722;SDS011;30451;48.638;10.624;2023-01-31T17:13:43;1.58;;;0.80;;
44722;SDS011;30451;48.638;10.624;2023-01-31T17:16:12;2.13;;;0.82;;
44722;SDS011;30451;48.638;10.624;2023-01-31T17:18:52;1.83;;;0.70;;
44722;SDS011;30451;48.638;10.624;2023-01-31T17:21:19;1.27;;;0.60;;
44722;SDS011;30451;48.638;10.624;2023-01-31T17:23:49;1.77;;;0.90;;
44722;SDS011;30451;48.638;10.624;2023-01-31T17:26:16;1.95;;;0.70;;
44722;SDS011;30451;48.638;10.624;2023-01-31T17:28:44;1.58;;;0.90;;
44722;SDS011;30451;48.638;10.624;2023-01-31T17:31:14;1.08;;;0.65;;
44722;SDS011;30451;48.638;10.624;2023-01-31T17:33:46;1.55;;;0.90;;
44722;SDS011;30451;48.638;10.624;2023-01-31T17:36:12;1.33;;;0.70;;
44722;SDS011;30451;48.638;10.624;2023-01-31T17:38:39;1.85;;;0.90;;
44722;SDS011;30451;48.638;10.624;2023-01-31T17:41:05;1.50;;;0.77;;
44722;SDS011;30451;48.638;10.624;2023-01-31T17:43:38;2.15;;;0.80;;
44722;SDS011;30451;48.638;10.624;2023-01-31T17:46:04;1.13;;;0.77;;